sensor_id;sensor_type;location;lat;lon;timestamp;P1;durP1;ratioP1;P2;durP2;ratioP2
76259;SDS011;65076;52.362;6.588;2023-03-03T00:01:39;29.30;;;12.35;;
76259;SDS011;65076;52.362;6.588;2023-03-03T00:04:07;26.05;;;12.02;;
76259;SDS011;65076;52.362;6.588;2023-03-03T00:06:35;24.75;;;11.13;;
76259;SDS011;65076;52.362;6.588;2023-03-03T00:09:03;27.90;;;14.23;;
76259;SDS011;65076;52.362;6.588;2023-03-03T00:11:31;26.23;;;10.98;;
76259;SDS011;65076;52.362;6.588;2023-03-03T00:14:00;25.83;;;12.70;;
76259;SDS011;65076;52.362;6.588;2023-03-03T00:16:30;24.25;;;11.95;;
76259;SDS011;65076;52.362;6.588;2023-03-03T00:19:06;28.15;;;13.02;;
76259;SDS011;65076;52.362;6.588;2023-03-03T00:21:43;30.02;;;13.52;;
76259;SDS011;65076;52.362;6.588;2023-03-03T00:24:18;29.52;;;13.02;;
76259;SDS011;65076;52.362;6.588;2023-03-03T00:26:50;28.17;;;13.13;;
76259;SDS011;65076;52.362;6.588;2023-03-03T00:29:29;34.85;;;12.57;;
76259;SDS011;65076;52.362;6.588;2023-03-03T00:32:19;33.78;;;12.85;;
76259;SDS011;65076;52.362;6.588;2023-03-03T00:34:51;31.35;;;14.35;;
76259;SDS011;65076;52.362;6.588;2023-03-03T00:37:26;31.63;;;12.63;;
76259;SDS011;65076;52.362;6.588;2023-03-03T00:39:58;32.47;;;14.07;;
76259;SDS011;65076;52.362;6.588;2023-03-03T00:42:43;33.50;;;14.32;;
76259;SDS011;65076;52.362;6.588;2023-03-03T00:45:20;35.47;;;13.85;;
76259;SDS011;65076;52.362;6.588;2023-03-03T00:47:54;33.67;;;14.93;;
76259;SDS011;65076;52.362;6.588;2023-03-03T00:50:30;28.17;;;13.65;;
76259;SDS011;65076;52.362;6.588;2023-03-03T00:53:06;34.85;;;14.50;;
76259;SDS011;65076;52.362;6.588;2023-03-03T00:55:38;28.33;;;12.77;;
76259;SDS011;65076;52.362;6.588;2023-03-03T00:58:06;31.73;;;13.00;;
76259;SDS011;65076;52.362;6.588;2023-03-03T01:00:36;30.77;;;14.57;;
76259;SDS011;65076;52.362;6.588;2023-03-03T01:03:06;32.50;;;13.23;;
76259;SDS011;65076;52.362;6.588;2023-03-03T01:05:36;40.63;;;15.85;;
76259;SDS011;65076;52.362;6.588;2023-03-03T01:08:04;34.90;;;13.98;;
76259;SDS011;65076;52.362;6.588;2023-03-03T01:10:33;28.27;;;12.52;;
76259;SDS011;65076;52.362;6.588;2023-03-03T01:13:06;32.72;;;14.02;;
76259;SDS011;65076;52.362;6.588;2023-03-03T01:15:36;34.80;;;14.05;;
76259;SDS011;65076;52.362;6.588;2023-03-03T01:18:05;32.78;;;13.98;;
76259;SDS011;65076;52.362;6.588;2023-03-03T01:20:34;29.27;;;11.35;;
76259;SDS011;65076;52.362;6.588;2023-03-03T01:23:01;35.42;;;14.32;;
76259;SDS011;65076;52.362;6.588;2023-03-03T01:25:30;30.40;;;12.82;;
76259;SDS011;65076;52.362;6.588;2023-03-03T01:27:58;34.60;;;13.68;;
76259;SDS011;65076;52.362;6.588;2023-03-03T01:30:26;34.65;;;13.20;;
76259;SDS011;65076;52.362;6.588;2023-03-03T01:32:56;31.75;;;13.60;;
76259;SDS011;65076;52.362;6.588;2023-03-03T01:35:24;30.42;;;13.60;;
76259;SDS011;65076;52.362;6.588;2023-03-03T01:37:52;29.42;;;12.98;;
76259;SDS011;65076;52.362;6.588;2023-03-03T01:40:22;25.90;;;11.63;;
76259;SDS011;65076;52.362;6.588;2023-03-03T01:42:52;29.27;;;13.02;;
76259;SDS011;65076;52.362;6.588;2023-03-03T01:45:21;30.85;;;13.93;;
76259;SDS011;65076;52.362;6.588;2023-03-03T01:47:53;26.65;;;11.35;;
76259;SDS011;65076;52.362;6.588;2023-03-03T01:50:32;30.35;;;14.15;;
76259;SDS011;65076;52.362;6.588;2023-03-03T01:53:10;27.80;;;13.20;;
76259;SDS011;65076;52.362;6.588;2023-03-03T01:55:45;24.85;;;10.70;;
76259;SDS011;65076;52.362;6.588;2023-03-03T01:58:18;27.02;;;12.35;;
76259;SDS011;65076;52.362;6.588;2023-03-03T02:00:54;27.08;;;12.73;;
76259;SDS011;65076;52.362;6.588;2023-03-03T02:03:30;30.10;;;14.05;;
76259;SDS011;65076;52.362;6.588;2023-03-03T02:06:00;32.30;;;13.32;;
76259;SDS011;65076;52.362;6.588;2023-03-03T02:08:37;19.75;;;10.95;;
76259;SDS011;65076;52.362;6.588;2023-03-03T02:11:15;26.92;;;13.45;;
76259;SDS011;65076;52.362;6.588;2023-03-03T02:13:44;26.13;;;11.93;;
76259;SDS011;65076;52.362;6.588;2023-03-03T02:16:12;31.33;;;12.77;;
76259;SDS011;65076;52.362;6.588;2023-03-03T02:18:42;31.40;;;11.75;;
76259;SDS011;65076;52.362;6.588;2023-03-03T02:21:11;32.05;;;12.82;;
76259;SDS011;65076;52.362;6.588;2023-03-03T02:23:44;31.27;;;13.05;;
76259;SDS011;65076;52.362;6.588;2023-03-03T02:26:22;36.53;;;13.82;;
76259;SDS011;65076;52.362;6.588;2023-03-03T02:28:52;20.23;;;9.10;;
76259;SDS011;65076;52.362;6.588;2023-03-03T02:31:21;35.58;;;14.15;;
76259;SDS011;65076;52.362;6.588;2023-03-03T02:33:52;31.77;;;13.40;;
76259;SDS011;65076;52.362;6.588;2023-03-03T02:36:22;28.23;;;11.95;;
76259;SDS011;65076;52.362;6.588;2023-03-03T02:38:55;34.13;;;13.88;;
76259;SDS011;65076;52.362;6.588;2023-03-03T02:41:34;34.28;;;14.02;;
76259;SDS011;65076;52.362;6.588;2023-03-03T02:44:07;29.67;;;12.90;;
76259;SDS011;65076;52.362;6.588;2023-03-03T02:46:38;27.35;;;12.45;;
76259;SDS011;65076;52.362;6.588;2023-03-03T02:49:09;28.80;;;12.77;;
76259;SDS011;65076;52.362;6.588;2023-03-03T02:51:39;29.08;;;12.88;;
76259;SDS011;65076;52.362;6.588;2023-03-03T02:54:09;28.08;;;13.15;;
76259;SDS011;65076;52.362;6.588;2023-03-03T02:56:41;23.17;;;11.40;;
76259;SDS011;65076;52.362;6.588;2023-03-03T02:59:09;24.92;;;12.23;;
76259;SDS011;65076;52.362;6.588;2023-03-03T03:01:38;26.35;;;12.77;;
76259;SDS011;65076;52.362;6.588;2023-03-03T03:04:07;25.98;;;10.40;;
76259;SDS011;65076;52.362;6.588;2023-03-03T03:06:38;24.45;;;10.73;;
76259;SDS011;65076;52.362;6.588;2023-03-03T03:09:07;26.45;;;11.88;;
76259;SDS011;65076;52.362;6.588;2023-03-03T03:11:37;26.50;;;13.68;;
76259;SDS011;65076;52.362;6.588;2023-03-03T03:14:08;28.00;;;12.00;;
76259;SDS011;65076;52.362;6.588;2023-03-03T03:16:38;27.63;;;12.05;;
76259;SDS011;65076;52.362;6.588;2023-03-03T03:19:07;28.35;;;13.93;;
76259;SDS011;65076;52.362;6.588;2023-03-03T03:21:35;24.73;;;11.98;;
76259;SDS011;65076;52.362;6.588;2023-03-03T03:24:03;28.70;;;13.30;;
76259;SDS011;65076;52.362;6.588;2023-03-03T03:26:32;24.25;;;11.10;;
76259;SDS011;65076;52.362;6.588;2023-03-03T03:29:00;25.25;;;11.32;;
76259;SDS011;65076;52.362;6.588;2023-03-03T03:31:29;25.30;;;11.77;;
76259;SDS011;65076;52.362;6.588;2023-03-03T03:33:58;23.17;;;10.23;;
76259;SDS011;65076;52.362;6.588;2023-03-03T03:36:26;24.55;;;11.75;;
76259;SDS011;65076;52.362;6.588;2023-03-03T03:38:54;22.98;;;11.52;;
76259;SDS011;65076;52.362;6.588;2023-03-03T03:41:22;24.35;;;11.73;;
76259;SDS011;65076;52.362;6.588;2023-03-03T03:43:50;23.58;;;11.43;;
76259;SDS011;65076;52.362;6.588;2023-03-03T03:46:18;22.40;;;10.93;;
76259;SDS011;65076;52.362;6.588;2023-03-03T03:48:47;22.63;;;10.63;;
76259;SDS011;65076;52.362;6.588;2023-03-03T03:51:15;21.55;;;9.98;;
76259;SDS011;65076;52.362;6.588;2023-03-03T03:53:43;20.65;;;10.02;;
76259;SDS011;65076;52.362;6.588;2023-03-03T03:56:11;22.25;;;10.10;;
76259;SDS011;65076;52.362;6.588;2023-03-03T03:58:39;23.90;;;11.55;;
76259;SDS011;65076;52.362;6.588;2023-03-03T04:01:08;27.30;;;12.57;;
76259;SDS011;65076;52.362;6.588;2023-03-03T04:03:36;21.73;;;10.40;;
76259;SDS011;65076;52.362;6.588;2023-03-03T04:06:05;25.20;;;11.98;;
76259;SDS011;65076;52.362;6.588;2023-03-03T04:08:33;25.35;;;11.20;;
76259;SDS011;65076;52.362;6.588;2023-03-03T04:11:01;24.70;;;11.82;;
76259;SDS011;65076;52.362;6.588;2023-03-03T04:13:29;22.77;;;10.93;;
76259;SDS011;65076;52.362;6.588;2023-03-03T04:16:00;19.45;;;8.27;;
76259;SDS011;65076;52.362;6.588;2023-03-03T04:18:28;22.67;;;11.35;;
76259;SDS011;65076;52.362;6.588;2023-03-03T04:20:56;18.85;;;9.55;;
76259;SDS011;65076;52.362;6.588;2023-03-03T04:23:25;23.17;;;8.85;;
76259;SDS011;65076;52.362;6.588;2023-03-03T04:25:53;22.50;;;9.73;;
76259;SDS011;65076;52.362;6.588;2023-03-03T04:28:21;21.02;;;9.73;;
76259;SDS011;65076;52.362;6.588;2023-03-03T04:30:50;19.40;;;8.85;;
76259;SDS011;65076;52.362;6.588;2023-03-03T04:33:18;21.52;;;9.30;;
76259;SDS011;65076;52.362;6.588;2023-03-03T04:35:46;22.88;;;11.23;;
76259;SDS011;65076;52.362;6.588;2023-03-03T04:38:14;21.30;;;9.20;;
76259;SDS011;65076;52.362;6.588;2023-03-03T04:40:43;22.70;;;10.02;;
76259;SDS011;65076;52.362;6.588;2023-03-03T04:43:11;23.75;;;11.35;;
76259;SDS011;65076;52.362;6.588;2023-03-03T04:45:39;21.88;;;10.32;;
76259;SDS011;65076;52.362;6.588;2023-03-03T04:48:07;19.45;;;9.52;;
76259;SDS011;65076;52.362;6.588;2023-03-03T04:50:35;22.95;;;10.07;;
76259;SDS011;65076;52.362;6.588;2023-03-03T04:53:05;25.25;;;9.75;;
76259;SDS011;65076;52.362;6.588;2023-03-03T04:55:34;22.45;;;9.65;;
76259;SDS011;65076;52.362;6.588;2023-03-03T04:58:04;25.63;;;11.02;;
76259;SDS011;65076;52.362;6.588;2023-03-03T05:00:35;24.45;;;10.48;;
76259;SDS011;65076;52.362;6.588;2023-03-03T05:03:03;25.42;;;10.85;;
76259;SDS011;65076;52.362;6.588;2023-03-03T05:05:31;27.33;;;10.80;;
76259;SDS011;65076;52.362;6.588;2023-03-03T05:07:59;31.75;;;12.50;;
76259;SDS011;65076;52.362;6.588;2023-03-03T05:10:27;27.70;;;12.38;;
76259;SDS011;65076;52.362;6.588;2023-03-03T05:12:55;31.77;;;12.13;;
76259;SDS011;65076;52.362;6.588;2023-03-03T05:15:24;30.10;;;11.63;;
76259;SDS011;65076;52.362;6.588;2023-03-03T05:17:52;29.92;;;11.93;;
76259;SDS011;65076;52.362;6.588;2023-03-03T05:20:21;22.02;;;10.63;;
76259;SDS011;65076;52.362;6.588;2023-03-03T05:22:50;26.40;;;10.95;;
76259;SDS011;65076;52.362;6.588;2023-03-03T05:25:18;32.38;;;13.05;;
76259;SDS011;65076;52.362;6.588;2023-03-03T05:27:47;26.95;;;11.30;;
76259;SDS011;65076;52.362;6.588;2023-03-03T05:30:15;30.30;;;11.55;;
76259;SDS011;65076;52.362;6.588;2023-03-03T05:32:44;26.23;;;10.60;;
76259;SDS011;65076;52.362;6.588;2023-03-03T05:35:12;27.35;;;10.27;;
76259;SDS011;65076;52.362;6.588;2023-03-03T05:37:40;24.70;;;9.32;;
76259;SDS011;65076;52.362;6.588;2023-03-03T05:40:12;24.50;;;9.57;;
76259;SDS011;65076;52.362;6.588;2023-03-03T05:42:40;22.38;;;9.35;;
76259;SDS011;65076;52.362;6.588;2023-03-03T05:45:09;28.55;;;9.63;;
76259;SDS011;65076;52.362;6.588;2023-03-03T05:47:38;22.20;;;9.02;;
76259;SDS011;65076;52.362;6.588;2023-03-03T05:50:08;24.70;;;9.35;;
76259;SDS011;65076;52.362;6.588;2023-03-03T05:52:37;25.45;;;9.88;;
76259;SDS011;65076;52.362;6.588;2023-03-03T05:55:05;23.33;;;9.88;;
76259;SDS011;65076;52.362;6.588;2023-03-03T05:57:34;24.42;;;9.73;;
76259;SDS011;65076;52.362;6.588;2023-03-03T06:00:03;29.48;;;11.20;;
76259;SDS011;65076;52.362;6.588;2023-03-03T06:02:32;26.70;;;10.82;;
76259;SDS011;65076;52.362;6.588;2023-03-03T06:05:01;30.63;;;11.38;;
76259;SDS011;65076;52.362;6.588;2023-03-03T06:07:30;23.45;;;9.75;;
76259;SDS011;65076;52.362;6.588;2023-03-03T06:09:58;31.73;;;11.32;;
76259;SDS011;65076;52.362;6.588;2023-03-03T06:12:26;29.58;;;11.57;;
76259;SDS011;65076;52.362;6.588;2023-03-03T06:14:54;32.50;;;10.95;;
76259;SDS011;65076;52.362;6.588;2023-03-03T06:17:22;28.30;;;10.52;;
76259;SDS011;65076;52.362;6.588;2023-03-03T06:19:50;27.60;;;10.80;;
76259;SDS011;65076;52.362;6.588;2023-03-03T06:22:18;27.10;;;10.43;;
76259;SDS011;65076;52.362;6.588;2023-03-03T06:24:47;31.38;;;11.02;;
76259;SDS011;65076;52.362;6.588;2023-03-03T06:27:15;36.42;;;11.02;;
76259;SDS011;65076;52.362;6.588;2023-03-03T06:29:43;28.90;;;9.95;;
76259;SDS011;65076;52.362;6.588;2023-03-03T06:32:11;31.63;;;11.95;;
76259;SDS011;65076;52.362;6.588;2023-03-03T06:34:39;30.92;;;11.48;;
76259;SDS011;65076;52.362;6.588;2023-03-03T06:37:07;39.33;;;10.38;;
76259;SDS011;65076;52.362;6.588;2023-03-03T06:39:35;26.55;;;11.13;;
76259;SDS011;65076;52.362;6.588;2023-03-03T06:42:05;28.30;;;10.18;;
76259;SDS011;65076;52.362;6.588;2023-03-03T06:44:34;27.48;;;10.52;;
76259;SDS011;65076;52.362;6.588;2023-03-03T06:47:03;24.70;;;10.20;;
76259;SDS011;65076;52.362;6.588;2023-03-03T06:49:31;26.00;;;9.13;;
76259;SDS011;65076;52.362;6.588;2023-03-03T06:52:00;27.15;;;9.88;;
76259;SDS011;65076;52.362;6.588;2023-03-03T06:54:38;30.13;;;9.18;;
76259;SDS011;65076;52.362;6.588;2023-03-03T06:57:12;23.70;;;9.60;;
76259;SDS011;65076;52.362;6.588;2023-03-03T06:59:46;29.40;;;10.55;;
76259;SDS011;65076;52.362;6.588;2023-03-03T07:02:19;24.83;;;9.98;;
76259;SDS011;65076;52.362;6.588;2023-03-03T07:04:48;23.67;;;10.18;;
76259;SDS011;65076;52.362;6.588;2023-03-03T07:07:17;26.20;;;10.38;;
76259;SDS011;65076;52.362;6.588;2023-03-03T07:09:48;28.45;;;10.15;;
76259;SDS011;65076;52.362;6.588;2023-03-03T07:12:21;24.98;;;9.45;;
76259;SDS011;65076;52.362;6.588;2023-03-03T07:14:54;26.70;;;8.68;;
76259;SDS011;65076;52.362;6.588;2023-03-03T07:17:38;19.42;;;8.82;;
76259;SDS011;65076;52.362;6.588;2023-03-03T07:22:47;31.85;;;10.68;;
76259;SDS011;65076;52.362;6.588;2023-03-03T07:25:21;25.83;;;10.52;;
76259;SDS011;65076;52.362;6.588;2023-03-03T07:28:06;24.15;;;9.35;;
76259;SDS011;65076;52.362;6.588;2023-03-03T07:30:43;27.15;;;11.05;;
76259;SDS011;65076;52.362;6.588;2023-03-03T07:33:14;27.80;;;11.52;;
76259;SDS011;65076;52.362;6.588;2023-03-03T07:35:52;27.80;;;11.70;;
76259;SDS011;65076;52.362;6.588;2023-03-03T07:38:24;25.77;;;9.88;;
76259;SDS011;65076;52.362;6.588;2023-03-03T07:43:34;23.50;;;9.60;;
76259;SDS011;65076;52.362;6.588;2023-03-03T07:49:13;22.17;;;8.50;;
76259;SDS011;65076;52.362;6.588;2023-03-03T07:51:51;21.90;;;10.30;;
76259;SDS011;65076;52.362;6.588;2023-03-03T07:54:29;19.88;;;7.97;;
76259;SDS011;65076;52.362;6.588;2023-03-03T07:57:06;23.75;;;9.70;;
76259;SDS011;65076;52.362;6.588;2023-03-03T07:59:47;19.40;;;8.85;;
76259;SDS011;65076;52.362;6.588;2023-03-03T08:02:31;16.77;;;7.65;;
76259;SDS011;65076;52.362;6.588;2023-03-03T08:05:26;21.30;;;8.90;;
76259;SDS011;65076;52.362;6.588;2023-03-03T08:08:11;17.83;;;8.18;;
76259;SDS011;65076;52.362;6.588;2023-03-03T08:10:54;15.43;;;7.75;;
76259;SDS011;65076;52.362;6.588;2023-03-03T08:13:26;19.50;;;8.50;;
76259;SDS011;65076;52.362;6.588;2023-03-03T08:16:19;21.23;;;8.18;;
76259;SDS011;65076;52.362;6.588;2023-03-03T08:18:57;16.65;;;7.90;;
76259;SDS011;65076;52.362;6.588;2023-03-03T08:21:30;16.42;;;6.93;;
76259;SDS011;65076;52.362;6.588;2023-03-03T08:24:02;16.88;;;8.15;;
76259;SDS011;65076;52.362;6.588;2023-03-03T08:26:31;13.85;;;6.50;;
76259;SDS011;65076;52.362;6.588;2023-03-03T08:28:59;15.63;;;6.78;;
76259;SDS011;65076;52.362;6.588;2023-03-03T08:31:28;13.07;;;5.63;;
76259;SDS011;65076;52.362;6.588;2023-03-03T08:34:06;14.35;;;5.90;;
76259;SDS011;65076;52.362;6.588;2023-03-03T08:36:35;12.25;;;5.90;;
76259;SDS011;65076;52.362;6.588;2023-03-03T08:39:03;10.75;;;5.55;;
76259;SDS011;65076;52.362;6.588;2023-03-03T08:41:31;11.18;;;5.65;;
76259;SDS011;65076;52.362;6.588;2023-03-03T08:43:59;9.88;;;4.68;;
76259;SDS011;65076;52.362;6.588;2023-03-03T08:46:29;12.40;;;4.95;;
76259;SDS011;65076;52.362;6.588;2023-03-03T08:48:57;9.50;;;5.03;;
76259;SDS011;65076;52.362;6.588;2023-03-03T08:51:25;12.02;;;5.80;;
76259;SDS011;65076;52.362;6.588;2023-03-03T08:53:53;9.07;;;4.88;;
76259;SDS011;65076;52.362;6.588;2023-03-03T08:56:21;7.70;;;4.45;;
76259;SDS011;65076;52.362;6.588;2023-03-03T08:58:49;11.02;;;4.60;;
76259;SDS011;65076;52.362;6.588;2023-03-03T09:01:29;9.65;;;4.55;;
76259;SDS011;65076;52.362;6.588;2023-03-03T09:03:57;9.32;;;5.20;;
76259;SDS011;65076;52.362;6.588;2023-03-03T09:06:25;8.35;;;4.15;;
76259;SDS011;65076;52.362;6.588;2023-03-03T09:08:53;7.30;;;3.97;;
76259;SDS011;65076;52.362;6.588;2023-03-03T09:11:23;9.57;;;4.57;;
76259;SDS011;65076;52.362;6.588;2023-03-03T09:13:55;9.73;;;5.10;;
76259;SDS011;65076;52.362;6.588;2023-03-03T09:16:36;7.95;;;4.32;;
76259;SDS011;65076;52.362;6.588;2023-03-03T09:19:17;7.75;;;4.20;;
76259;SDS011;65076;52.362;6.588;2023-03-03T09:21:51;9.52;;;4.88;;
76259;SDS011;65076;52.362;6.588;2023-03-03T09:24:25;9.85;;;4.38;;
76259;SDS011;65076;52.362;6.588;2023-03-03T09:26:55;7.03;;;4.32;;
76259;SDS011;65076;52.362;6.588;2023-03-03T09:29:25;11.38;;;4.20;;
76259;SDS011;65076;52.362;6.588;2023-03-03T09:31:57;7.32;;;3.70;;
76259;SDS011;65076;52.362;6.588;2023-03-03T09:34:36;10.23;;;4.45;;
76259;SDS011;65076;52.362;6.588;2023-03-03T09:37:14;9.02;;;4.10;;
76259;SDS011;65076;52.362;6.588;2023-03-03T09:39:49;7.25;;;4.00;;
76259;SDS011;65076;52.362;6.588;2023-03-03T09:42:29;6.63;;;3.67;;
76259;SDS011;65076;52.362;6.588;2023-03-03T09:45:24;7.10;;;3.78;;
76259;SDS011;65076;52.362;6.588;2023-03-03T09:48:16;7.22;;;3.85;;
76259;SDS011;65076;52.362;6.588;2023-03-03T09:51:06;7.63;;;3.83;;
76259;SDS011;65076;52.362;6.588;2023-03-03T09:54:03;5.72;;;3.70;;
76259;SDS011;65076;52.362;6.588;2023-03-03T09:56:52;7.20;;;4.70;;
76259;SDS011;65076;52.362;6.588;2023-03-03T09:59:35;7.00;;;3.65;;
76259;SDS011;65076;52.362;6.588;2023-03-03T10:02:28;5.85;;;3.30;;
76259;SDS011;65076;52.362;6.588;2023-03-03T10:08:17;5.70;;;3.50;;
76259;SDS011;65076;52.362;6.588;2023-03-03T10:11:09;7.13;;;3.63;;
76259;SDS011;65076;52.362;6.588;2023-03-03T10:13:55;6.50;;;3.80;;
76259;SDS011;65076;52.362;6.588;2023-03-03T10:16:52;6.82;;;3.95;;
76259;SDS011;65076;52.362;6.588;2023-03-03T10:19:45;5.72;;;3.47;;
76259;SDS011;65076;52.362;6.588;2023-03-03T10:22:35;6.85;;;4.30;;
76259;SDS011;65076;52.362;6.588;2023-03-03T10:25:18;6.18;;;3.70;;
76259;SDS011;65076;52.362;6.588;2023-03-03T10:28:14;6.03;;;3.60;;
76259;SDS011;65076;52.362;6.588;2023-03-03T10:31:21;8.10;;;4.47;;
76259;SDS011;65076;52.362;6.588;2023-03-03T10:34:15;6.95;;;3.92;;
76259;SDS011;65076;52.362;6.588;2023-03-03T10:37:03;6.35;;;3.42;;
76259;SDS011;65076;52.362;6.588;2023-03-03T10:39:57;5.85;;;3.50;;
76259;SDS011;65076;52.362;6.588;2023-03-03T10:42:46;6.07;;;3.83;;
76259;SDS011;65076;52.362;6.588;2023-03-03T10:45:44;6.72;;;3.42;;
76259;SDS011;65076;52.362;6.588;2023-03-03T10:48:40;6.47;;;3.38;;
76259;SDS011;65076;52.362;6.588;2023-03-03T10:51:26;4.25;;;3.28;;
76259;SDS011;65076;52.362;6.588;2023-03-03T10:54:09;4.20;;;3.08;;
76259;SDS011;65076;52.362;6.588;2023-03-03T10:57:00;5.78;;;2.92;;
76259;SDS011;65076;52.362;6.588;2023-03-03T10:59:54;5.90;;;2.90;;
76259;SDS011;65076;52.362;6.588;2023-03-03T11:02:39;6.03;;;3.25;;
76259;SDS011;65076;52.362;6.588;2023-03-03T11:05:25;6.03;;;3.33;;
76259;SDS011;65076;52.362;6.588;2023-03-03T11:08:04;7.18;;;3.58;;
76259;SDS011;65076;52.362;6.588;2023-03-03T11:10:51;4.72;;;3.45;;
76259;SDS011;65076;52.362;6.588;2023-03-03T11:13:32;5.10;;;2.78;;
76259;SDS011;65076;52.362;6.588;2023-03-03T11:16:20;5.82;;;3.47;;
76259;SDS011;65076;52.362;6.588;2023-03-03T11:19:19;5.43;;;3.08;;
76259;SDS011;65076;52.362;6.588;2023-03-03T11:22:06;7.05;;;3.67;;
76259;SDS011;65076;52.362;6.588;2023-03-03T11:24:55;5.53;;;2.92;;
76259;SDS011;65076;52.362;6.588;2023-03-03T11:27:38;4.97;;;2.97;;
76259;SDS011;65076;52.362;6.588;2023-03-03T11:30:30;4.47;;;2.63;;
76259;SDS011;65076;52.362;6.588;2023-03-03T11:33:14;3.40;;;2.30;;
76259;SDS011;65076;52.362;6.588;2023-03-03T11:35:50;5.10;;;2.42;;
76259;SDS011;65076;52.362;6.588;2023-03-03T11:38:37;5.32;;;2.58;;
76259;SDS011;65076;52.362;6.588;2023-03-03T11:41:25;3.40;;;2.40;;
76259;SDS011;65076;52.362;6.588;2023-03-03T11:44:07;5.00;;;2.78;;
76259;SDS011;65076;52.362;6.588;2023-03-03T11:47:04;5.80;;;2.95;;
76259;SDS011;65076;52.362;6.588;2023-03-03T11:49:46;5.18;;;2.90;;
76259;SDS011;65076;52.362;6.588;2023-03-03T11:52:21;2.50;;;2.10;;
76259;SDS011;65076;52.362;6.588;2023-03-03T11:55:00;4.35;;;2.42;;
76259;SDS011;65076;52.362;6.588;2023-03-03T11:57:39;4.30;;;2.83;;
76259;SDS011;65076;52.362;6.588;2023-03-03T12:00:17;4.50;;;2.50;;
76259;SDS011;65076;52.362;6.588;2023-03-03T12:03:02;4.47;;;2.33;;
76259;SDS011;65076;52.362;6.588;2023-03-03T12:05:42;4.07;;;2.38;;
76259;SDS011;65076;52.362;6.588;2023-03-03T12:11:41;4.53;;;2.30;;
76259;SDS011;65076;52.362;6.588;2023-03-03T12:14:23;4.55;;;2.13;;
76259;SDS011;65076;52.362;6.588;2023-03-03T12:17:10;3.13;;;2.45;;
76259;SDS011;65076;52.362;6.588;2023-03-03T12:20:07;4.00;;;2.17;;
76259;SDS011;65076;52.362;6.588;2023-03-03T12:22:51;4.22;;;2.33;;
76259;SDS011;65076;52.362;6.588;2023-03-03T12:25:38;3.47;;;2.08;;
76259;SDS011;65076;52.362;6.588;2023-03-03T12:28:10;5.15;;;2.00;;
76259;SDS011;65076;52.362;6.588;2023-03-03T12:33:53;4.25;;;2.28;;
76259;SDS011;65076;52.362;6.588;2023-03-03T12:36:35;5.07;;;2.00;;
76259;SDS011;65076;52.362;6.588;2023-03-03T12:39:27;3.58;;;2.15;;
76259;SDS011;65076;52.362;6.588;2023-03-03T12:42:13;4.85;;;2.00;;
76259;SDS011;65076;52.362;6.588;2023-03-03T12:44:59;3.30;;;1.80;;
76259;SDS011;65076;52.362;6.588;2023-03-03T12:47:45;4.05;;;2.28;;
76259;SDS011;65076;52.362;6.588;2023-03-03T12:50:22;6.45;;;2.05;;
76259;SDS011;65076;52.362;6.588;2023-03-03T12:53:05;2.63;;;1.73;;
76259;SDS011;65076;52.362;6.588;2023-03-03T12:55:48;3.58;;;2.20;;
76259;SDS011;65076;52.362;6.588;2023-03-03T12:58:24;2.47;;;2.03;;
76259;SDS011;65076;52.362;6.588;2023-03-03T13:01:08;2.58;;;1.60;;
76259;SDS011;65076;52.362;6.588;2023-03-03T13:03:56;2.95;;;1.63;;
76259;SDS011;65076;52.362;6.588;2023-03-03T13:06:35;3.10;;;1.80;;
76259;SDS011;65076;52.362;6.588;2023-03-03T13:09:21;5.35;;;1.38;;
76259;SDS011;65076;52.362;6.588;2023-03-03T13:12:12;4.50;;;1.50;;
76259;SDS011;65076;52.362;6.588;2023-03-03T13:15:00;2.92;;;1.30;;
76259;SDS011;65076;52.362;6.588;2023-03-03T13:17:43;2.60;;;1.02;;
76259;SDS011;65076;52.362;6.588;2023-03-03T13:20:28;4.88;;;2.22;;
76259;SDS011;65076;52.362;6.588;2023-03-03T13:23:09;2.15;;;1.48;;
76259;SDS011;65076;52.362;6.588;2023-03-03T13:25:56;2.63;;;1.52;;
76259;SDS011;65076;52.362;6.588;2023-03-03T13:28:35;4.43;;;2.05;;
76259;SDS011;65076;52.362;6.588;2023-03-03T13:31:10;4.82;;;2.13;;
76259;SDS011;65076;52.362;6.588;2023-03-03T13:33:47;6.95;;;1.92;;
76259;SDS011;65076;52.362;6.588;2023-03-03T13:36:21;4.30;;;1.75;;
76259;SDS011;65076;52.362;6.588;2023-03-03T13:38:57;4.10;;;2.05;;
76259;SDS011;65076;52.362;6.588;2023-03-03T13:41:35;6.72;;;1.98;;
76259;SDS011;65076;52.362;6.588;2023-03-03T13:44:15;2.08;;;1.10;;
76259;SDS011;65076;52.362;6.588;2023-03-03T13:46:55;2.17;;;0.80;;
76259;SDS011;65076;52.362;6.588;2023-03-03T13:49:43;3.63;;;1.13;;
76259;SDS011;65076;52.362;6.588;2023-03-03T13:52:29;2.17;;;1.02;;
76259;SDS011;65076;52.362;6.588;2023-03-03T13:55:12;2.03;;;0.90;;
76259;SDS011;65076;52.362;6.588;2023-03-03T13:57:58;2.00;;;0.95;;
76259;SDS011;65076;52.362;6.588;2023-03-03T14:00:41;3.17;;;1.00;;
76259;SDS011;65076;52.362;6.588;2023-03-03T14:03:34;1.67;;;0.70;;
76259;SDS011;65076;52.362;6.588;2023-03-03T14:14:48;3.45;;;1.23;;
76259;SDS011;65076;52.362;6.588;2023-03-03T14:17:31;2.03;;;1.05;;
76259;SDS011;65076;52.362;6.588;2023-03-03T14:20:13;1.50;;;0.93;;
76259;SDS011;65076;52.362;6.588;2023-03-03T14:22:51;2.50;;;1.33;;
76259;SDS011;65076;52.362;6.588;2023-03-03T14:25:23;1.33;;;1.00;;
76259;SDS011;65076;52.362;6.588;2023-03-03T14:27:58;3.33;;;1.20;;
76259;SDS011;65076;52.362;6.588;2023-03-03T14:30:38;4.97;;;1.83;;
76259;SDS011;65076;52.362;6.588;2023-03-03T14:33:14;5.85;;;1.67;;
76259;SDS011;65076;52.362;6.588;2023-03-03T14:35:59;2.38;;;1.15;;
76259;SDS011;65076;52.362;6.588;2023-03-03T14:38:40;2.45;;;1.35;;
76259;SDS011;65076;52.362;6.588;2023-03-03T14:41:14;3.40;;;1.40;;
76259;SDS011;65076;52.362;6.588;2023-03-03T14:43:54;6.13;;;1.23;;
76259;SDS011;65076;52.362;6.588;2023-03-03T14:46:37;2.50;;;1.42;;
76259;SDS011;65076;52.362;6.588;2023-03-03T14:49:12;4.45;;;1.55;;
76259;SDS011;65076;52.362;6.588;2023-03-03T14:51:43;3.90;;;1.50;;
76259;SDS011;65076;52.362;6.588;2023-03-03T14:54:19;2.42;;;1.15;;
76259;SDS011;65076;52.362;6.588;2023-03-03T14:57:02;4.85;;;1.27;;
76259;SDS011;65076;52.362;6.588;2023-03-03T14:59:39;2.17;;;1.35;;
76259;SDS011;65076;52.362;6.588;2023-03-03T15:05:15;3.30;;;1.80;;
76259;SDS011;65076;52.362;6.588;2023-03-03T15:07:49;5.00;;;2.17;;
76259;SDS011;65076;52.362;6.588;2023-03-03T15:10:25;4.10;;;1.77;;
76259;SDS011;65076;52.362;6.588;2023-03-03T15:13:09;5.05;;;2.47;;
76259;SDS011;65076;52.362;6.588;2023-03-03T15:19:09;7.78;;;3.70;;
76259;SDS011;65076;52.362;6.588;2023-03-03T15:22:11;8.45;;;3.60;;
76259;SDS011;65076;52.362;6.588;2023-03-03T15:24:56;6.95;;;3.83;;
76259;SDS011;65076;52.362;6.588;2023-03-03T15:27:33;6.70;;;3.60;;
76259;SDS011;65076;52.362;6.588;2023-03-03T15:30:11;6.85;;;3.65;;
76259;SDS011;65076;52.362;6.588;2023-03-03T15:32:53;6.10;;;3.05;;
76259;SDS011;65076;52.362;6.588;2023-03-03T15:35:35;6.80;;;3.85;;
76259;SDS011;65076;52.362;6.588;2023-03-03T15:38:17;4.82;;;3.15;;
76259;SDS011;65076;52.362;6.588;2023-03-03T15:40:59;7.32;;;3.90;;
76259;SDS011;65076;52.362;6.588;2023-03-03T15:43:42;6.47;;;3.83;;
76259;SDS011;65076;52.362;6.588;2023-03-03T15:46:27;9.55;;;4.25;;
76259;SDS011;65076;52.362;6.588;2023-03-03T15:49:12;10.95;;;4.32;;
76259;SDS011;65076;52.362;6.588;2023-03-03T15:52:07;5.70;;;3.08;;
76259;SDS011;65076;52.362;6.588;2023-03-03T15:55:00;3.83;;;2.65;;
76259;SDS011;65076;52.362;6.588;2023-03-03T15:57:44;4.45;;;3.38;;